Time;durP1;ratioP1;P1;durP2;ratioP2;P2;SDS_P1;SDS_P2;PMS_P1;PMS_P2;Temp;Humidity;BMP_temperature;BMP_pressure;BME280_temperature;BME280_humidity;BME280_pressure;Samples;Min_cycle;Max_cycle;Signal;HPM_P1;HPM_P2
2024/04/06 00:00:25;;;;;;;;;;;15.90;99.90;;;;;;2106692;28;19918;-74
2024/04/06 00:01:25;;;;;;;;;;;15.90;99.90;;;;;;2101104;28;19919;-74
2024/04/06 00:02:26;;;;;;;;;;;15.90;99.90;;;;;;2093900;28;20514;-74
2024/04/06 00:03:26;;;;;;;;;;;15.80;99.90;;;;;;2094297;28;20043;-75
2024/04/06 00:04:27;;;;;;;;;;;15.80;99.90;;;;;;2105864;28;19923;-73
2024/04/06 00:05:27;;;;;;;;;;;15.70;99.90;;;;;;2101764;28;20002;-73
2024/04/06 00:06:28;;;;;;;;;;;15.70;99.90;;;;;;2100668;28;19923;-73
2024/04/06 00:07:28;;;;;;;;;;;15.70;99.90;;;;;;2102243;28;20344;-74
2024/04/06 00:08:29;;;;;;;;;;;15.70;99.90;;;;;;2094529;28;19912;-74
2024/04/06 00:09:29;;;;;;;;;;;15.70;99.90;;;;;;2098000;28;20207;-75
2024/04/06 00:10:30;;;;;;;;;;;15.80;99.90;;;;;;2094920;28;19917;-75
2024/04/06 00:11:31;;;;;;;;;;;15.80;99.90;;;;;;2103067;28;20054;-73
2024/04/06 00:12:31;;;;;;;;;;;15.70;99.90;;;;;;2099654;28;19952;-75
2024/04/06 00:13:32;;;;;;;;;;;15.70;99.90;;;;;;2103494;28;20350;-74
2024/04/06 00:14:32;;;;;;;;;;;15.70;99.90;;;;;;2094677;28;19920;-75
2024/04/06 00:15:33;;;;;;;;;;;15.70;99.90;;;;;;2100374;28;19916;-74
2024/04/06 00:16:33;;;;;;;;;;;15.70;99.90;;;;;;2100615;28;20002;-74
2024/04/06 00:17:33;;;;;;;;;;;15.60;99.90;;;;;;2100305;28;20379;-75
2024/04/06 00:18:35;;;;;;;;;;;15.70;99.90;;;;;;2093154;28;19955;-74
2024/04/06 00:19:36;;;;;;;;;;;15.60;99.90;;;;;;2098917;28;19962;-74
2024/04/06 00:20:37;;;;;;;;;;;15.60;99.90;;;;;;2106139;28;19920;-74
2024/04/06 00:21:37;;;;;;;;;;;15.60;99.90;;;;;;2095380;28;19927;-74
2024/04/06 00:22:38;;;;;;;;;;;15.60;99.90;;;;;;2098282;28;19928;-74
2024/04/06 00:23:39;;;;;;;;;;;15.60;99.90;;;;;;2102264;28;19946;-74
2024/04/06 00:24:40;;;;;;;;;;;15.50;99.90;;;;;;2102548;28;20068;-74
2024/04/06 00:25:40;;;;;;;;;;;15.50;99.90;;;;;;2096317;28;19952;-74
2024/04/06 00:26:41;;;;;;;;;;;15.50;99.90;;;;;;2098151;28;19952;-74
2024/04/06 00:27:41;;;;;;;;;;;15.50;99.90;;;;;;2101252;28;20373;-75
2024/04/06 00:28:42;;;;;;;;;;;15.50;99.90;;;;;;2096961;28;20295;-75
2024/04/06 00:29:42;;;;;;;;;;;15.50;99.90;;;;;;2097648;28;20298;-74
2024/04/06 00:30:43;;;;;;;;;;;15.50;99.90;;;;;;2095260;28;19922;-74
2024/04/06 00:31:43;;;;;;;;;;;15.50;99.90;;;;;;2084880;28;19928;-75
2024/04/06 00:32:44;;;;;;;;;;;15.40;99.90;;;;;;2099848;28;20055;-75
2024/04/06 00:33:44;;;;;;;;;;;15.40;99.90;;;;;;2102404;28;19973;-75
2024/04/06 00:34:45;;;;;;;;;;;15.40;99.90;;;;;;2098578;28;20366;-75
2024/04/06 00:35:45;;;;;;;;;;;15.30;99.90;;;;;;2101166;28;19935;-75
2024/04/06 00:36:46;;;;;;;;;;;15.30;99.90;;;;;;2100060;28;20588;-75
2024/04/06 00:37:48;;;;;;;;;;;15.30;99.90;;;;;;2097095;28;19916;-74
2024/04/06 00:38:49;;;;;;;;;;;15.20;99.90;;;;;;2104076;28;19923;-75
2024/04/06 00:39:49;;;;;;;;;;;15.20;99.90;;;;;;2100718;28;20342;-75
2024/04/06 00:40:50;;;;;;;;;;;15.20;99.90;;;;;;2098117;28;19912;-75
2024/04/06 00:41:50;;;;;;;;;;;15.20;99.90;;;;;;2101779;28;19912;-75
2024/04/06 00:42:51;;;;;;;;;;;15.20;99.90;;;;;;2098870;28;19920;-74
2024/04/06 00:43:52;;;;;;;;;;;15.20;99.90;;;;;;2101682;28;20617;-74
2024/04/06 00:44:52;;;;;;;;;;;15.20;99.90;;;;;;2099485;28;19921;-75
2024/04/06 00:45:53;;;;;;;;;;;15.10;99.90;;;;;;2101178;28;20595;-73
2024/04/06 00:46:53;;;;;;;;;;;15.20;99.90;;;;;;2098426;28;19916;-73
2024/04/06 00:47:54;;;;;;;;;;;15.10;99.90;;;;;;2095649;28;19923;-74
2024/04/06 00:48:54;;;;;;;;;;;15.10;99.90;;;;;;2100639;28;20327;-74
2024/04/06 00:49:55;;;;;;;;;;;15.10;99.90;;;;;;2098583;28;19916;-74
2024/04/06 00:50:59;;;;;;;;;;;15.10;99.90;;;;;;2098554;28;19961;-74
2024/04/06 00:52:00;;;;;;;;;;;15.20;99.90;;;;;;2102102;28;20472;-73
2024/04/06 00:53:00;;;;;;;;;;;15.20;99.90;;;;;;2100574;28;19982;-74
2024/04/06 00:54:01;;;;;;;;;;;15.10;99.90;;;;;;2106707;28;20396;-75
2024/04/06 00:55:03;;;;;;;;;;;15.20;99.90;;;;;;2094808;28;19916;-74
2024/04/06 00:56:04;;;;;;;;;;;15.20;99.90;;;;;;2100462;28;19917;-74
2024/04/06 00:57:07;;;;;;;;;;;15.10;99.90;;;;;;2099607;28;19938;-73
2024/04/06 00:58:08;;;;;;;;;;;15.10;99.90;;;;;;2093446;28;19917;-74
2024/04/06 00:59:08;;;;;;;;;;;15.10;99.90;;;;;;2100549;28;19966;-73
2024/04/06 01:00:09;;;;;;;;;;;15.20;99.90;;;;;;2100641;28;19923;-75
2024/04/06 01:01:10;;;;;;;;;;;15.10;99.90;;;;;;2092725;28;19917;-73
2024/04/06 01:02:11;;;;;;;;;;;15.10;99.90;;;;;;2097351;28;19919;-74
2024/04/06 01:03:11;;;;;;;;;;;15.10;99.90;;;;;;2106267;28;19923;-74
2024/04/06 01:04:12;;;;;;;;;;;15.10;99.90;;;;;;2093835;28;20375;-73
2024/04/06 01:05:12;;;;;;;;;;;15.10;99.90;;;;;;2100090;28;19913;-73
2024/04/06 01:06:13;;;;;;;;;;;15.10;99.90;;;;;;2101238;28;20030;-74
2024/04/06 01:07:13;;;;;;;;;;;15.10;99.90;;;;;;2093947;28;19966;-73
2024/04/06 01:08:14;;;;;;;;;;;15.10;99.90;;;;;;2099043;28;19921;-73
2024/04/06 01:09:14;;;;;;;;;;;15.10;99.90;;;;;;2101023;28;20322;-73
2024/04/06 01:10:15;;;;;;;;;;;15.20;99.90;;;;;;2097875;28;19913;-73
2024/04/06 01:11:15;;;;;;;;;;;15.20;99.90;;;;;;2099999;28;19913;-73
2024/04/06 01:12:16;;;;;;;;;;;15.20;99.90;;;;;;2101527;28;19920;-73
2024/04/06 01:13:16;;;;;;;;;;;15.10;99.90;;;;;;2100092;28;19916;-74
2024/04/06 01:14:17;;;;;;;;;;;15.10;99.90;;;;;;2093112;28;19919;-75
2024/04/06 01:15:17;;;;;;;;;;;15.00;99.90;;;;;;2099871;28;20541;-74
2024/04/06 01:16:18;;;;;;;;;;;15.10;99.90;;;;;;2100661;28;19922;-74
2024/04/06 01:17:18;;;;;;;;;;;15.00;99.90;;;;;;2093827;28;20314;-75
2024/04/06 01:18:19;;;;;;;;;;;15.00;99.90;;;;;;2099504;28;20386;-74
2024/04/06 01:19:19;;;;;;;;;;;15.00;99.90;;;;;;2100034;28;19920;-74
2024/04/06 01:20:20;;;;;;;;;;;15.10;99.90;;;;;;2085098;28;19967;-74
2024/04/06 01:21:20;;;;;;;;;;;15.10;99.90;;;;;;2102814;28;20352;-75
2024/04/06 01:22:21;;;;;;;;;;;15.00;99.90;;;;;;2100237;28;20004;-75
2024/04/06 01:23:22;;;;;;;;;;;15.10;99.90;;;;;;2102017;28;20380;-76
2024/04/06 01:24:22;;;;;;;;;;;15.10;99.90;;;;;;2098942;28;19920;-74
2024/04/06 01:25:22;;;;;;;;;;;15.00;99.90;;;;;;2100783;28;19984;-74
2024/04/06 01:26:23;;;;;;;;;;;15.00;99.90;;;;;;2094524;28;19920;-74
2024/04/06 01:27:23;;;;;;;;;;;15.00;99.90;;;;;;2097744;28;19916;-74
2024/04/06 01:28:26;;;;;;;;;;;15.10;99.90;;;;;;2099318;28;19918;-75
2024/04/06 01:29:27;;;;;;;;;;;15.10;99.90;;;;;;2102444;28;19970;-74
2024/04/06 01:30:27;;;;;;;;;;;15.10;99.90;;;;;;2100138;28;19934;-74
2024/04/06 01:31:28;;;;;;;;;;;15.10;99.90;;;;;;2089922;28;19943;-74
2024/04/06 01:32:28;;;;;;;;;;;15.10;99.90;;;;;;2104674;28;19916;-75
2024/04/06 01:33:28;;;;;;;;;;;15.10;99.90;;;;;;2101022;28;19931;-75
2024/04/06 01:34:29;;;;;;;;;;;15.10;99.90;;;;;;2094961;28;20187;-75
2024/04/06 01:35:30;;;;;;;;;;;15.00;99.90;;;;;;2097417;28;19916;-75
2024/04/06 01:36:30;;;;;;;;;;;15.00;99.90;;;;;;2099328;28;19972;-74
2024/04/06 01:37:30;;;;;;;;;;;15.10;99.90;;;;;;2093556;28;19923;-74
2024/04/06 01:38:31;;;;;;;;;;;15.00;99.90;;;;;;2101117;28;19991;-73
2024/04/06 01:39:31;;;;;;;;;;;15.00;99.90;;;;;;2098988;28;20015;-74
2024/04/06 01:40:32;;;;;;;;;;;15.00;99.90;;;;;;2100861;28;19908;-75
2024/04/06 01:41:34;;;;;;;;;;;15.00;99.90;;;;;;2104589;28;19923;-73
2024/04/06 01:42:34;;;;;;;;;;;15.00;99.90;;;;;;2095377;28;20010;-73
2024/04/06 01:43:35;;;;;;;;;;;15.00;99.90;;;;;;2094234;28;20287;-77
2024/04/06 01:44:35;;;;;;;;;;;15.00;99.90;;;;;;2094425;28;19995;-74
2024/04/06 01:45:36;;;;;;;;;;;14.90;99.90;;;;;;2094381;28;19909;-74
2024/04/06 01:46:36;;;;;;;;;;;14.90;99.90;;;;;;2103823;28;20290;-74
2024/04/06 01:47:37;;;;;;;;;;;14.90;99.90;;;;;;2103697;28;19911;-74
2024/04/06 01:48:37;;;;;;;;;;;14.90;99.90;;;;;;2103544;28;20278;-74
2024/04/06 01:49:38;;;;;;;;;;;14.90;99.90;;;;;;2096113;28;19920;-73
2024/04/06 01:50:38;;;;;;;;;;;14.90;99.90;;;;;;2096734;28;19943;-74
2024/04/06 01:51:39;;;;;;;;;;;14.90;99.90;;;;;;2100384;28;19919;-74
2024/04/06 01:52:39;;;;;;;;;;;14.90;99.90;;;;;;2096418;28;19916;-75
2024/04/06 01:53:40;;;;;;;;;;;14.90;99.90;;;;;;2096372;28;19971;-74
2024/04/06 01:54:42;;;;;;;;;;;14.90;99.90;;;;;;2100089;28;19955;-74
2024/04/06 01:55:42;;;;;;;;;;;14.90;99.90;;;;;;2096944;28;19921;-74
2024/04/06 01:56:45;;;;;;;;;;;14.80;99.90;;;;;;2097638;28;19998;-74
2024/04/06 01:57:45;;;;;;;;;;;14.90;99.90;;;;;;2093224;28;20017;-74
2024/04/06 01:58:46;;;;;;;;;;;15.00;99.90;;;;;;2093071;28;19921;-75
2024/04/06 01:59:46;;;;;;;;;;;15.00;99.90;;;;;;2100280;28;19912;-75
2024/04/06 02:00:46;;;;;;;;;;;15.00;99.90;;;;;;2100784;28;20007;-74
2024/04/06 02:01:47;;;;;;;;;;;15.00;99.90;;;;;;2097669;28;19912;-74
2024/04/06 02:02:48;;;;;;;;;;;14.90;99.90;;;;;;2093175;28;20003;-75
2024/04/06 02:03:48;;;;;;;;;;;15.00;99.90;;;;;;2102943;28;19943;-73
2024/04/06 02:04:49;;;;;;;;;;;15.10;99.90;;;;;;2103136;28;19995;-73
2024/04/06 02:05:50;;;;;;;;;;;15.10;99.90;;;;;;2098226;27;19916;-74
2024/04/06 02:06:50;;;;;;;;;;;15.20;99.90;;;;;;2098535;28;19983;-73
2024/04/06 02:07:51;;;;;;;;;;;15.20;99.90;;;;;;2098799;28;19916;-74
2024/04/06 02:08:51;;;;;;;;;;;15.20;99.90;;;;;;2091966;28;20007;-73
2024/04/06 02:09:52;;;;;;;;;;;15.30;99.90;;;;;;2091692;28;20433;-75
2024/04/06 02:10:52;;;;;;;;;;;15.20;99.90;;;;;;2092546;28;19961;-74
2024/04/06 02:11:53;;;;;;;;;;;15.20;99.90;;;;;;2096581;28;19989;-71
2024/04/06 02:12:54;;;;;;;;;;;15.20;99.90;;;;;;2100182;28;19916;-71
2024/04/06 02:13:55;;;;;;;;;;;15.20;99.90;;;;;;2099615;28;19915;-72
2024/04/06 02:14:55;;;;;;;;;;;15.20;99.90;;;;;;2093080;28;20330;-76
2024/04/06 02:15:56;;;;;;;;;;;15.10;99.90;;;;;;2100847;28;20024;-81
2024/04/06 02:16:59;;;;;;;;;;;15.10;99.90;;;;;;2105164;28;19916;-79
2024/04/06 02:18:00;;;;;;;;;;;15.10;99.90;;;;;;2097840;28;20320;-81
2024/04/06 02:19:01;;;;;;;;;;;15.10;99.90;;;;;;2092809;28;20244;-81
2024/04/06 02:20:01;;;;;;;;;;;15.10;99.90;;;;;;2104573;28;20336;-81
2024/04/06 02:21:01;;;;;;;;;;;15.10;99.90;;;;;;2094544;28;19916;-81
2024/04/06 02:22:02;;;;;;;;;;;15.10;99.90;;;;;;2100386;28;20392;-81
2024/04/06 02:23:12;;;;;;;;;;;15.10;99.90;;;;;;2102759;28;19916;-82
2024/04/06 02:24:12;;;;;;;;;;;15.10;99.90;;;;;;2098032;28;19913;-81
2024/04/06 02:25:13;;;;;;;;;;;15.10;99.90;;;;;;2102867;28;19916;-80
2024/04/06 02:26:13;;;;;;;;;;;15.00;99.90;;;;;;2100132;28;19981;-81
2024/04/06 02:27:14;;;;;;;;;;;15.10;99.90;;;;;;2105936;28;20147;-82
2024/04/06 02:28:14;;;;;;;;;;;15.00;99.90;;;;;;2101755;28;19931;-82
2024/04/06 02:29:15;;;;;;;;;;;15.10;99.90;;;;;;2100216;28;19916;-82
2024/04/06 02:30:15;;;;;;;;;;;15.00;99.90;;;;;;2093102;28;19921;-82
2024/04/06 02:31:18;;;;;;;;;;;15.00;99.90;;;;;;2097302;28;21504;-81
2024/04/06 02:32:18;;;;;;;;;;;14.90;99.90;;;;;;2100420;28;20193;-80
2024/04/06 02:33:19;;;;;;;;;;;15.00;99.90;;;;;;2097649;28;19916;-82
2024/04/06 02:34:20;;;;;;;;;;;15.00;99.90;;;;;;2099566;28;20004;-82
2024/04/06 02:35:20;;;;;;;;;;;15.00;99.90;;;;;;2097960;28;19921;-81
2024/04/06 02:36:21;;;;;;;;;;;15.10;99.90;;;;;;2096772;28;19919;-82
2024/04/06 02:37:21;;;;;;;;;;;15.10;99.90;;;;;;2103551;28;19931;-82
2024/04/06 02:38:22;;;;;;;;;;;15.10;99.90;;;;;;2099362;28;19920;-78
2024/04/06 02:39:22;;;;;;;;;;;15.10;99.90;;;;;;2095422;28;19932;-83
2024/04/06 02:40:23;;;;;;;;;;;15.10;99.90;;;;;;2100362;28;20417;-81
2024/04/06 02:41:23;;;;;;;;;;;15.10;99.90;;;;;;2103125;28;19974;-80
2024/04/06 02:42:24;;;;;;;;;;;15.10;99.90;;;;;;2099971;28;19916;-80
2024/04/06 02:43:24;;;;;;;;;;;15.10;99.90;;;;;;2099787;28;19928;-82
2024/04/06 02:44:25;;;;;;;;;;;15.20;99.90;;;;;;2098762;28;20423;-82
2024/04/06 02:45:25;;;;;;;;;;;15.20;99.90;;;;;;2099578;28;19923;-81
2024/04/06 02:46:26;;;;;;;;;;;15.10;99.90;;;;;;2098534;28;19924;-83
2024/04/06 02:47:29;;;;;;;;;;;15.20;99.90;;;;;;2099122;28;19923;-83
2024/04/06 02:48:30;;;;;;;;;;;15.20;99.90;;;;;;2096754;28;19916;-83
2024/04/06 02:49:30;;;;;;;;;;;15.10;99.90;;;;;;2099713;28;19959;-83
2024/04/06 02:50:32;;;;;;;;;;;15.10;99.90;;;;;;2094633;28;20465;-81
2024/04/06 02:51:32;;;;;;;;;;;15.00;99.90;;;;;;2100369;28;20322;-80
2024/04/06 02:52:33;;;;;;;;;;;15.00;99.90;;;;;;2098714;28;19998;-81
2024/04/06 02:53:33;;;;;;;;;;;15.00;99.90;;;;;;2098340;28;20066;-88
2024/04/06 02:54:34;;;;;;;;;;;15.00;99.90;;;;;;2105144;28;20281;-89
2024/04/06 02:55:34;;;;;;;;;;;14.90;99.90;;;;;;2113002;28;19917;-87
2024/04/06 02:56:35;;;;;;;;;;;14.90;99.90;;;;;;2103100;28;20454;-84
2024/04/06 02:57:36;;;;;;;;;;;14.90;99.90;;;;;;2102212;28;19912;-83
2024/04/06 02:58:36;;;;;;;;;;;14.90;99.90;;;;;;2104453;28;19946;-80
2024/04/06 02:59:37;;;;;;;;;;;14.90;99.90;;;;;;2094356;28;20371;-80
2024/04/06 03:00:37;;;;;;;;;;;14.90;99.90;;;;;;2100197;28;19924;-81
2024/04/06 03:01:38;;;;;;;;;;;14.90;99.90;;;;;;2099852;28;19916;-80
2024/04/06 03:02:39;;;;;;;;;;;14.90;99.90;;;;;;2104804;28;19916;-79
2024/04/06 03:03:39;;;;;;;;;;;14.90;99.90;;;;;;2095170;28;19924;-79
2024/04/06 03:04:40;;;;;;;;;;;14.90;99.90;;;;;;2103267;28;19917;-80
2024/04/06 03:05:41;;;;;;;;;;;14.90;99.90;;;;;;2095848;28;19969;-80
2024/04/06 03:06:41;;;;;;;;;;;15.00;99.90;;;;;;2096380;28;19912;-81
2024/04/06 03:07:44;;;;;;;;;;;15.00;99.90;;;;;;2096502;28;20338;-81
2024/04/06 03:08:44;;;;;;;;;;;15.00;99.90;;;;;;2098429;28;19915;-80
2024/04/06 03:09:46;;;;;;;;;;;15.00;99.90;;;;;;2095702;28;19916;-81
2024/04/06 03:10:47;;;;;;;;;;;14.90;99.90;;;;;;2103343;28;19916;-80
2024/04/06 03:11:47;;;;;;;;;;;14.90;99.90;;;;;;2094430;28;19959;-76
2024/04/06 03:12:48;;;;;;;;;;;14.90;99.90;;;;;;2097644;28;20027;-79
2024/04/06 03:13:49;;;;;;;;;;;14.90;99.90;;;;;;2098668;28;20396;-80
2024/04/06 03:14:49;;;;;;;;;;;14.90;99.90;;;;;;2095163;28;19920;-80
2024/04/06 03:15:50;;;;;;;;;;;14.90;99.90;;;;;;2098570;28;19924;-81
2024/04/06 03:16:51;;;;;;;;;;;14.90;99.90;;;;;;2098123;28;20255;-81
2024/04/06 03:17:52;;;;;;;;;;;14.90;99.90;;;;;;2098521;28;19916;-81
2024/04/06 03:18:52;;;;;;;;;;;14.90;99.90;;;;;;2097947;28;19926;-79
2024/04/06 03:19:52;;;;;;;;;;;14.90;99.90;;;;;;2097836;28;19920;-80
2024/04/06 03:20:53;;;;;;;;;;;14.90;99.90;;;;;;2099720;28;19916;-80
2024/04/06 03:21:53;;;;;;;;;;;15.00;99.90;;;;;;2094162;28;19924;-78
2024/04/06 03:22:58;;;;;;;;;;;14.90;99.90;;;;;;2100857;28;19913;-80
2024/04/06 03:23:58;;;;;;;;;;;14.90;99.90;;;;;;2093552;28;20431;-80
2024/04/06 03:24:59;;;;;;;;;;;15.00;99.90;;;;;;2093423;28;20023;-80
2024/04/06 03:25:59;;;;;;;;;;;14.90;99.90;;;;;;2100836;28;20445;-80
2024/04/06 03:27:00;;;;;;;;;;;14.90;99.90;;;;;;2097879;28;19916;-79
2024/04/06 03:28:00;;;;;;;;;;;14.90;99.90;;;;;;2097139;28;19916;-80
2024/04/06 03:29:01;;;;;;;;;;;14.90;99.90;;;;;;2101419;28;19921;-79
2024/04/06 03:30:01;;;;;;;;;;;14.90;99.90;;;;;;2098269;28;20330;-81
2024/04/06 03:31:02;;;;;;;;;;;14.90;99.90;;;;;;2095277;28;19955;-80
2024/04/06 03:32:02;;;;;;;;;;;14.90;99.90;;;;;;2101601;28;19972;-80
2024/04/06 03:33:03;;;;;;;;;;;14.90;99.90;;;;;;2103749;28;20726;-80
2024/04/06 03:34:04;;;;;;;;;;;15.00;99.90;;;;;;2100484;28;19921;-79
2024/04/06 03:35:04;;;;;;;;;;;15.00;99.90;;;;;;2100157;28;19970;-79
2024/04/06 03:36:05;;;;;;;;;;;15.00;99.90;;;;;;2101192;28;20003;-79
2024/04/06 03:37:07;;;;;;;;;;;14.90;99.90;;;;;;2103352;28;19923;-81
2024/04/06 03:38:07;;;;;;;;;;;14.90;99.90;;;;;;2098401;28;19913;-78
2024/04/06 03:39:08;;;;;;;;;;;15.00;99.90;;;;;;2091543;28;19922;-78
2024/04/06 03:40:09;;;;;;;;;;;15.00;99.90;;;;;;2097709;28;20388;-79
2024/04/06 03:41:10;;;;;;;;;;;15.00;99.90;;;;;;2102523;28;20260;-79
2024/04/06 03:42:12;;;;;;;;;;;15.00;99.90;;;;;;2093428;28;19913;-81
2024/04/06 03:43:12;;;;;;;;;;;14.90;99.90;;;;;;2100014;28;19944;-79
2024/04/06 03:44:12;;;;;;;;;;;14.90;99.90;;;;;;2104027;28;19912;-80
2024/04/06 03:45:13;;;;;;;;;;;14.90;99.90;;;;;;2102678;28;19922;-80
2024/04/06 03:46:14;;;;;;;;;;;14.90;99.90;;;;;;2099299;28;20386;-80
2024/04/06 03:47:15;;;;;;;;;;;14.90;99.90;;;;;;2102465;28;19971;-81
2024/04/06 03:48:15;;;;;;;;;;;14.90;99.90;;;;;;2099407;28;20059;-80
2024/04/06 03:49:16;;;;;;;;;;;14.90;99.90;;;;;;2099669;28;19957;-81
2024/04/06 03:50:16;;;;;;;;;;;14.90;99.90;;;;;;2102381;28;20013;-81
2024/04/06 03:51:18;;;;;;;;;;;14.90;99.90;;;;;;2101955;28;19999;-81
2024/04/06 03:52:18;;;;;;;;;;;14.90;99.90;;;;;;2100502;28;19969;-79
2024/04/06 03:53:32;;;;;;;;;;;14.90;99.90;;;;;;2099489;28;19935;-80
2024/04/06 03:54:32;;;;;;;;;;;14.90;99.90;;;;;;2102969;28;19915;-80
2024/04/06 03:55:33;;;;;;;;;;;14.90;99.90;;;;;;2099880;28;20324;-80
2024/04/06 03:56:34;;;;;;;;;;;14.90;99.90;;;;;;2098318;28;19989;-81
2024/04/06 03:57:34;;;;;;;;;;;14.90;99.90;;;;;;2100883;28;20053;-80
2024/04/06 03:58:35;;;;;;;;;;;14.90;99.90;;;;;;2102058;28;20405;-80
2024/04/06 03:59:35;;;;;;;;;;;14.90;99.90;;;;;;2101023;28;19924;-80
2024/04/06 04:00:36;;;;;;;;;;;14.90;99.90;;;;;;2104183;28;19923;-81
2024/04/06 04:01:36;;;;;;;;;;;14.90;99.90;;;;;;2102015;28;19912;-80
2024/04/06 04:02:37;;;;;;;;;;;14.90;99.90;;;;;;2099685;28;19912;-79
2024/04/06 04:03:38;;;;;;;;;;;14.90;99.90;;;;;;2103204;28;20289;-79
2024/04/06 04:04:38;;;;;;;;;;;14.90;99.90;;;;;;2101651;28;20173;-80
2024/04/06 04:05:39;;;;;;;;;;;14.90;99.90;;;;;;2098346;28;20328;-81
2024/04/06 04:06:39;;;;;;;;;;;14.90;99.90;;;;;;2102364;28;20268;-80
2024/04/06 04:07:40;;;;;;;;;;;14.90;99.90;;;;;;2102868;28;20337;-80
2024/04/06 04:08:40;;;;;;;;;;;14.90;99.90;;;;;;2102425;28;19924;-80
2024/04/06 04:09:41;;;;;;;;;;;14.90;99.90;;;;;;2101559;28;19920;-82
2024/04/06 04:10:41;;;;;;;;;;;14.90;99.90;;;;;;2098210;28;19920;-82
2024/04/06 04:11:42;;;;;;;;;;;14.90;99.90;;;;;;2101713;28;20498;-81
2024/04/06 04:12:43;;;;;;;;;;;14.90;99.90;;;;;;2100251;28;19912;-80
2024/04/06 04:13:43;;;;;;;;;;;14.90;99.90;;;;;;2098939;28;19926;-79
2024/04/06 04:14:43;;;;;;;;;;;14.90;99.90;;;;;;2102583;28;19927;-80
2024/04/06 04:15:44;;;;;;;;;;;14.90;99.90;;;;;;2104030;28;19912;-81
2024/04/06 04:16:44;;;;;;;;;;;14.90;99.90;;;;;;2106976;28;20380;-80
2024/04/06 04:17:45;;;;;;;;;;;14.90;99.90;;;;;;2101071;28;20178;-81
2024/04/06 04:18:46;;;;;;;;;;;14.90;99.90;;;;;;2096240;28;19986;-80
2024/04/06 04:19:46;;;;;;;;;;;14.90;99.90;;;;;;2100555;28;19946;-80
2024/04/06 04:20:47;;;;;;;;;;;14.80;99.90;;;;;;2101648;28;20033;-80
2024/04/06 04:21:47;;;;;;;;;;;14.90;99.90;;;;;;2101096;28;20221;-79
2024/04/06 04:22:48;;;;;;;;;;;14.80;99.90;;;;;;2101384;28;19959;-81
2024/04/06 04:23:48;;;;;;;;;;;14.90;99.90;;;;;;2096662;28;19916;-80
2024/04/06 04:24:49;;;;;;;;;;;14.90;99.90;;;;;;2101899;28;19916;-80
2024/04/06 04:25:49;;;;;;;;;;;14.80;99.90;;;;;;2097914;28;19912;-80
2024/04/06 04:26:50;;;;;;;;;;;14.90;99.90;;;;;;2095229;28;20428;-80
2024/04/06 04:27:50;;;;;;;;;;;14.90;99.90;;;;;;2100298;28;19924;-80
2024/04/06 04:28:51;;;;;;;;;;;14.80;99.90;;;;;;2099136;28;19924;-79
2024/04/06 04:29:52;;;;;;;;;;;14.80;99.90;;;;;;2101043;28;19952;-80
2024/04/06 04:30:52;;;;;;;;;;;14.80;99.90;;;;;;2101312;28;19923;-80
2024/04/06 04:31:53;;;;;;;;;;;14.80;99.90;;;;;;2085820;28;19940;-79
2024/04/06 04:32:54;;;;;;;;;;;14.80;99.90;;;;;;2100051;28;19915;-80
2024/04/06 04:33:54;;;;;;;;;;;14.90;99.90;;;;;;2100682;28;20371;-82
2024/04/06 04:34:55;;;;;;;;;;;14.90;99.90;;;;;;2101734;28;19977;-79
2024/04/06 04:35:55;;;;;;;;;;;14.90;99.90;;;;;;2097351;28;20043;-80
2024/04/06 04:36:55;;;;;;;;;;;14.90;99.90;;;;;;2097824;28;20409;-80
2024/04/06 04:37:56;;;;;;;;;;;14.90;99.90;;;;;;2097291;28;19959;-80
2024/04/06 04:38:56;;;;;;;;;;;14.90;99.90;;;;;;2100340;28;20025;-81
2024/04/06 04:39:57;;;;;;;;;;;14.90;99.90;;;;;;2098368;28;19916;-70
2024/04/06 04:40:57;;;;;;;;;;;14.90;99.90;;;;;;2099892;28;19916;-70
2024/04/06 04:41:58;;;;;;;;;;;14.90;99.90;;;;;;2097867;28;19924;-70
2024/04/06 04:42:58;;;;;;;;;;;14.90;99.90;;;;;;2097824;28;19911;-70
2024/04/06 04:43:59;;;;;;;;;;;15.00;99.90;;;;;;2099645;28;19924;-70
2024/04/06 04:45:04;;;;;;;;;;;15.00;99.90;;;;;;2098150;28;19916;-71
2024/04/06 04:46:04;;;;;;;;;;;15.00;99.90;;;;;;2098548;28;19995;-70
2024/04/06 04:47:04;;;;;;;;;;;15.00;99.90;;;;;;2098007;28;19916;-70
2024/04/06 04:48:05;;;;;;;;;;;15.00;99.90;;;;;;2091739;28;19987;-70
2024/04/06 04:49:06;;;;;;;;;;;15.00;99.90;;;;;;2101310;28;19963;-69
2024/04/06 04:50:06;;;;;;;;;;;15.00;99.90;;;;;;2101407;28;19937;-70
2024/04/06 04:51:07;;;;;;;;;;;15.00;99.90;;;;;;2097726;28;19912;-70
2024/04/06 04:52:07;;;;;;;;;;;15.00;99.90;;;;;;2097639;28;19920;-71
2024/04/06 04:53:09;;;;;;;;;;;15.00;99.90;;;;;;2102024;28;19925;-71
2024/04/06 04:54:09;;;;;;;;;;;15.00;99.90;;;;;;2101038;28;19954;-69
2024/04/06 04:55:10;;;;;;;;;;;15.00;99.90;;;;;;2098683;28;20384;-69
2024/04/06 04:56:10;;;;;;;;;;;15.00;99.90;;;;;;2097546;28;19916;-69
2024/04/06 04:57:11;;;;;;;;;;;15.00;99.90;;;;;;2093687;28;19916;-70
2024/04/06 04:58:11;;;;;;;;;;;15.00;99.90;;;;;;2097519;28;20434;-69
2024/04/06 04:59:12;;;;;;;;;;;15.10;99.90;;;;;;2090862;28;19920;-69
2024/04/06 05:00:13;;;;;;;;;;;15.10;99.90;;;;;;2088723;28;20193;-69
2024/04/06 05:01:14;;;;;;;;;;;15.10;99.90;;;;;;2102343;28;19920;-70
2024/04/06 05:02:14;;;;;;;;;;;15.10;99.90;;;;;;2100455;28;20354;-69
2024/04/06 05:03:15;;;;;;;;;;;15.10;99.90;;;;;;2097319;28;19985;-69
2024/04/06 05:04:15;;;;;;;;;;;15.20;99.90;;;;;;2101724;28;20682;-70
2024/04/06 05:05:16;;;;;;;;;;;15.20;99.90;;;;;;2100232;28;20005;-70
2024/04/06 05:06:16;;;;;;;;;;;15.30;99.90;;;;;;2099543;28;20382;-69
2024/04/06 05:07:20;;;;;;;;;;;15.40;99.90;;;;;;2101189;28;19913;-69
2024/04/06 05:08:20;;;;;;;;;;;15.40;99.90;;;;;;2100562;28;19961;-70
2024/04/06 05:09:21;;;;;;;;;;;15.50;99.90;;;;;;2093414;28;19978;-70
2024/04/06 05:10:21;;;;;;;;;;;15.50;99.90;;;;;;2104314;28;19951;-69
2024/04/06 05:11:21;;;;;;;;;;;15.50;99.90;;;;;;2103208;28;20282;-70
2024/04/06 05:12:22;;;;;;;;;;;15.50;99.90;;;;;;2100061;28;19977;-69
2024/04/06 05:13:23;;;;;;;;;;;15.50;99.90;;;;;;2092817;28;20294;-70
2024/04/06 05:14:23;;;;;;;;;;;15.60;99.90;;;;;;2097430;28;19968;-69
2024/04/06 05:15:24;;;;;;;;;;;15.60;99.90;;;;;;2099691;28;19923;-69
2024/04/06 05:16:24;;;;;;;;;;;15.60;99.90;;;;;;2093039;28;19917;-71
2024/04/06 05:17:25;;;;;;;;;;;15.70;99.90;;;;;;2097506;28;20006;-70
2024/04/06 05:18:25;;;;;;;;;;;15.70;99.90;;;;;;2102104;28;19977;-70
2024/04/06 05:19:26;;;;;;;;;;;15.70;99.90;;;;;;2102176;28;20300;-70
2024/04/06 05:20:26;;;;;;;;;;;15.70;99.90;;;;;;2101780;28;19920;-69
2024/04/06 05:21:27;;;;;;;;;;;15.70;99.90;;;;;;2104504;28;19915;-69
2024/04/06 05:22:27;;;;;;;;;;;15.70;99.90;;;;;;2098198;28;19912;-69
2024/04/06 05:23:28;;;;;;;;;;;15.80;99.90;;;;;;2099103;28;19973;-71
2024/04/06 05:24:28;;;;;;;;;;;15.80;99.90;;;;;;2104655;28;20341;-70
2024/04/06 05:25:29;;;;;;;;;;;15.80;99.90;;;;;;2099487;28;19920;-69
2024/04/06 05:26:29;;;;;;;;;;;15.80;99.90;;;;;;2100372;28;19916;-70
2024/04/06 05:27:30;;;;;;;;;;;15.70;99.90;;;;;;2100993;28;19923;-71
2024/04/06 05:28:30;;;;;;;;;;;15.70;99.90;;;;;;2099418;28;19916;-70
2024/04/06 05:29:31;;;;;;;;;;;15.80;99.90;;;;;;2105951;28;19938;-70
2024/04/06 05:30:31;;;;;;;;;;;15.80;99.90;;;;;;2104673;28;19916;-69
2024/04/06 05:31:32;;;;;;;;;;;15.70;99.90;;;;;;2096326;28;19912;-69
2024/04/06 05:32:32;;;;;;;;;;;15.70;99.90;;;;;;2100135;28;19918;-70
2024/04/06 05:33:33;;;;;;;;;;;15.80;99.90;;;;;;2093065;28;19916;-70
2024/04/06 05:34:33;;;;;;;;;;;15.70;99.90;;;;;;2099893;28;20081;-70
2024/04/06 05:35:34;;;;;;;;;;;15.80;99.90;;;;;;2101163;28;20389;-69
2024/04/06 05:36:34;;;;;;;;;;;15.80;99.90;;;;;;2092818;28;19994;-69
2024/04/06 05:37:35;;;;;;;;;;;15.70;99.90;;;;;;2098039;28;20127;-69
2024/04/06 05:38:35;;;;;;;;;;;15.70;99.90;;;;;;2103658;28;20486;-69
2024/04/06 05:39:36;;;;;;;;;;;15.60;99.90;;;;;;2093811;28;19923;-70
2024/04/06 05:40:37;;;;;;;;;;;15.60;99.90;;;;;;2098819;28;19928;-70
2024/04/06 05:41:37;;;;;;;;;;;15.60;99.90;;;;;;2099964;28;19915;-70
2024/04/06 05:42:37;;;;;;;;;;;15.60;99.90;;;;;;2095489;28;19944;-69
2024/04/06 05:43:38;;;;;;;;;;;15.60;99.90;;;;;;2097272;28;19917;-70
2024/04/06 05:44:38;;;;;;;;;;;15.60;99.90;;;;;;2094883;28;19917;-71
2024/04/06 05:45:40;;;;;;;;;;;15.50;99.90;;;;;;2097938;28;19939;-71
2024/04/06 05:46:41;;;;;;;;;;;15.50;99.90;;;;;;2100654;28;19969;-70
2024/04/06 05:47:41;;;;;;;;;;;15.50;99.90;;;;;;2094356;28;20388;-69
2024/04/06 05:48:42;;;;;;;;;;;15.50;99.90;;;;;;2102897;28;19923;-70
2024/04/06 05:49:43;;;;;;;;;;;15.50;99.90;;;;;;2097969;28;19928;-69
2024/04/06 05:50:44;;;;;;;;;;;15.40;99.90;;;;;;2099600;28;20382;-70
2024/04/06 05:51:45;;;;;;;;;;;15.50;99.90;;;;;;2094882;28;19925;-69
2024/04/06 05:52:46;;;;;;;;;;;15.50;99.90;;;;;;2097426;28;20256;-70